createdAt,value
2022-11-24T00:09:38.647Z,2.63
2022-11-24T00:19:40.369Z,2.30
2022-11-24T00:29:42.023Z,2.37
2022-11-24T00:39:43.664Z,2.30
2022-11-24T00:49:45.301Z,2.50
2022-11-24T00:59:46.927Z,2.60
2022-11-24T01:09:48.555Z,2.87
2022-11-24T01:19:51.229Z,2.63
2022-11-24T01:29:52.891Z,3.30
2022-11-24T01:39:54.577Z,2.80
2022-11-24T01:49:59.735Z,2.67
2022-11-24T02:00:06.286Z,2.90
2022-11-24T02:10:12.948Z,2.80
2022-11-24T02:20:15.437Z,2.70
2022-11-24T02:30:17.408Z,2.60
2022-11-24T02:40:25.014Z,3.00
2022-11-24T02:50:26.752Z,3.10
2022-11-24T03:00:28.455Z,2.93
2022-11-24T03:10:30.298Z,2.77
2022-11-24T03:20:32.409Z,2.80
2022-11-24T03:30:34.051Z,3.00
2022-11-24T03:40:35.781Z,3.37
2022-11-24T03:50:37.398Z,2.60
2022-11-24T04:00:39.184Z,2.90
2022-11-24T04:10:41.349Z,3.00
2022-11-24T04:20:43.387Z,2.90
2022-11-24T04:30:45.390Z,3.57
2022-11-24T04:40:47.085Z,3.40
2022-11-24T04:50:48.707Z,3.13
2022-11-24T05:08:56.534Z,2.60
2022-11-24T05:18:58.177Z,3.07
2022-11-24T05:28:59.812Z,3.70
2022-11-24T05:39:01.433Z,3.63
2022-11-24T05:49:03.377Z,4.57
2022-11-24T05:59:09.628Z,3.03
2022-11-24T06:09:11.718Z,3.57
2022-11-24T06:19:13.536Z,3.47
2022-11-24T06:29:15.303Z,3.60
2022-11-24T06:39:17.045Z,4.13
2022-11-24T06:49:19.005Z,3.90
2022-11-24T06:59:21.406Z,3.60
2022-11-24T07:09:22.992Z,3.67
2022-11-24T07:19:25.329Z,3.30
2022-11-24T07:29:27.068Z,4.47
2022-11-24T07:39:28.663Z,3.40
2022-11-24T07:49:30.276Z,3.27
2022-11-24T08:08:02.686Z,3.93
2022-11-24T08:18:04.495Z,3.60
2022-11-24T08:28:06.135Z,4.10
2022-11-24T08:38:07.817Z,3.60
2022-11-24T08:55:09.486Z,4.87
2022-11-24T09:05:35.848Z,3.00
2022-11-24T09:15:35.487Z,3.23
2022-11-24T09:25:37.702Z,2.27
2022-11-24T09:35:39.386Z,2.60
2022-11-24T09:46:05.856Z,2.20
2022-11-24T09:56:22.351Z,2.00
2022-11-24T10:06:51.534Z,2.30
2022-11-24T10:17:05.208Z,2.33
2022-11-24T10:27:18.437Z,2.20
2022-11-24T10:37:33.746Z,2.40
2022-11-24T10:47:35.353Z,1.93
2022-11-24T10:57:39.685Z,2.03
2022-11-24T11:07:41.663Z,2.53
2022-11-24T11:17:44.906Z,1.90
2022-11-24T11:27:46.973Z,2.40
2022-11-24T11:37:49.567Z,2.03
2022-11-24T11:47:57.241Z,3.17
2022-11-24T11:58:15.862Z,2.50
2022-11-24T12:09:18.498Z,2.33
2022-11-24T12:19:49.633Z,2.10
2022-11-24T12:30:13.004Z,4.93
2022-11-24T12:40:40.908Z,2.60
2022-11-24T12:50:47.212Z,2.10
2022-11-24T13:00:58.850Z,2.00
2022-11-24T13:11:22.310Z,2.10
2022-11-24T13:21:35.809Z,1.77
2022-11-24T13:31:37.548Z,2.23
2022-11-24T13:41:42.267Z,2.07
2022-11-24T13:51:44.333Z,2.30
2022-11-24T14:01:56.841Z,2.00
2022-11-24T14:12:20.349Z,2.63
2022-11-24T14:22:41.012Z,2.33
2022-11-24T14:32:57.493Z,2.60
2022-11-24T14:42:59.172Z,2.47
2022-11-24T14:53:00.886Z,2.53
2022-11-24T15:03:02.526Z,3.10
2022-11-24T15:13:20.451Z,2.97
2022-11-24T15:23:26.088Z,3.03
2022-11-24T15:33:27.986Z,3.40
2022-11-24T15:43:40.711Z,3.60
2022-11-24T15:54:00.624Z,4.93
2022-11-24T16:04:03.388Z,3.50
2022-11-24T16:14:05.296Z,2.87
2022-11-24T16:24:07.441Z,4.90
2022-11-24T16:34:09.470Z,3.80
2022-11-24T16:44:11.428Z,4.00
2022-11-24T16:54:13.566Z,3.30
2022-11-24T17:04:15.245Z,4.20
2022-11-24T17:14:16.877Z,4.97
2022-11-24T17:24:18.523Z,4.57
2022-11-24T17:34:20.427Z,4.67
2022-11-24T17:44:22.182Z,5.00
2022-11-24T17:54:45.477Z,8.43
2022-11-24T18:04:45.452Z,7.87
2022-11-24T18:14:47.102Z,8.73
2022-11-24T18:24:48.746Z,8.20
2022-11-24T18:34:51.063Z,8.83
2022-11-24T18:44:54.302Z,9.03
2022-11-24T18:54:56.087Z,8.90
2022-11-24T19:04:57.691Z,9.20
2022-11-24T19:14:59.349Z,8.90
2022-11-24T19:25:00.954Z,9.30
2022-11-24T19:35:02.583Z,8.87
2022-11-24T19:45:04.832Z,8.10
2022-11-24T19:55:06.709Z,8.17
2022-11-24T20:05:08.429Z,8.90
2022-11-24T20:15:10.131Z,10.40
2022-11-24T20:25:11.783Z,12.07
2022-11-24T20:35:18.038Z,10.60
2022-11-24T20:45:20.145Z,10.20
2022-11-24T20:55:21.857Z,11.90
2022-11-24T21:05:24.157Z,16.37
2022-11-24T21:15:25.954Z,15.80
2022-11-24T21:25:27.556Z,15.00
2022-11-24T21:35:29.591Z,14.20
2022-11-24T21:45:34.236Z,13.23
2022-11-24T21:55:35.890Z,12.40
2022-11-24T22:05:37.495Z,9.87
2022-11-24T22:15:39.115Z,10.23
2022-11-24T22:25:40.744Z,9.30
2022-11-24T22:35:42.430Z,10.80
2022-11-24T22:45:44.111Z,9.43
2022-11-24T22:55:45.751Z,10.23
2022-11-24T23:05:47.400Z,9.93
2022-11-24T23:15:49.020Z,9.50
2022-11-24T23:25:51.057Z,9.70
2022-11-24T23:35:52.658Z,9.40
2022-11-24T23:45:54.417Z,9.13
2022-11-24T23:55:56.235Z,9.20
